sensor_id;sensor_type;location;lat;lon;timestamp;P1;durP1;ratioP1;P2;durP2;ratioP2
25653;SDS011;13511;48.622;9.230;2022-08-01T00:01:24;5.65;;;5.18;;
25653;SDS011;13511;48.622;9.230;2022-08-01T00:03:50;5.63;;;5.10;;
25653;SDS011;13511;48.622;9.230;2022-08-01T00:06:17;5.43;;;5.00;;
25653;SDS011;13511;48.622;9.230;2022-08-01T00:08:43;5.10;;;4.80;;
25653;SDS011;13511;48.622;9.230;2022-08-01T00:11:09;4.95;;;4.53;;
25653;SDS011;13511;48.622;9.230;2022-08-01T00:13:35;4.88;;;4.68;;
25653;SDS011;13511;48.622;9.230;2022-08-01T00:16:01;5.50;;;5.18;;
25653;SDS011;13511;48.622;9.230;2022-08-01T00:18:27;6.07;;;5.50;;
25653;SDS011;13511;48.622;9.230;2022-08-01T00:20:53;5.25;;;4.95;;
25653;SDS011;13511;48.622;9.230;2022-08-01T00:23:19;6.15;;;5.18;;
25653;SDS011;13511;48.622;9.230;2022-08-01T00:25:45;4.70;;;4.40;;
25653;SDS011;13511;48.622;9.230;2022-08-01T00:28:11;5.68;;;5.22;;
25653;SDS011;13511;48.622;9.230;2022-08-01T00:30:38;7.57;;;4.95;;
25653;SDS011;13511;48.622;9.230;2022-08-01T00:33:04;7.93;;;5.00;;
25653;SDS011;13511;48.622;9.230;2022-08-01T00:35:30;5.28;;;4.88;;
25653;SDS011;13511;48.622;9.230;2022-08-01T00:37:56;5.80;;;5.00;;
25653;SDS011;13511;48.622;9.230;2022-08-01T00:40:22;4.95;;;4.57;;
25653;SDS011;13511;48.622;9.230;2022-08-01T00:42:48;10.45;;;5.20;;
25653;SDS011;13511;48.622;9.230;2022-08-01T00:45:14;5.10;;;4.80;;
25653;SDS011;13511;48.622;9.230;2022-08-01T00:47:40;4.78;;;4.57;;
25653;SDS011;13511;48.622;9.230;2022-08-01T00:50:06;5.35;;;4.50;;
25653;SDS011;13511;48.622;9.230;2022-08-01T00:52:33;5.10;;;4.80;;
25653;SDS011;13511;48.622;9.230;2022-08-01T00:54:59;5.18;;;4.70;;
25653;SDS011;13511;48.622;9.230;2022-08-01T00:57:25;5.15;;;4.75;;
25653;SDS011;13511;48.622;9.230;2022-08-01T00:59:51;4.82;;;4.53;;
25653;SDS011;13511;48.622;9.230;2022-08-01T01:02:17;4.88;;;4.57;;
25653;SDS011;13511;48.622;9.230;2022-08-01T01:04:44;4.95;;;4.55;;
25653;SDS011;13511;48.622;9.230;2022-08-01T01:07:29;4.40;;;4.20;;
25653;SDS011;13511;48.622;9.230;2022-08-01T01:15:07;4.60;;;4.40;;
25653;SDS011;13511;48.622;9.230;2022-08-01T01:17:39;4.60;;;4.32;;
25653;SDS011;13511;48.622;9.230;2022-08-01T01:20:07;5.65;;;4.70;;
25653;SDS011;13511;48.622;9.230;2022-08-01T01:30:28;4.57;;;4.18;;
25653;SDS011;13511;48.622;9.230;2022-08-01T01:32:56;5.40;;;4.93;;
25653;SDS011;13511;48.622;9.230;2022-08-01T01:35:24;4.82;;;4.53;;
25653;SDS011;13511;48.622;9.230;2022-08-01T01:37:54;5.22;;;4.93;;
25653;SDS011;13511;48.622;9.230;2022-08-01T01:40:24;9.60;;;5.10;;
25653;SDS011;13511;48.622;9.230;2022-08-01T01:42:51;6.72;;;5.38;;
25653;SDS011;13511;48.622;9.230;2022-08-01T01:45:20;5.40;;;4.50;;
25653;SDS011;13511;48.622;9.230;2022-08-01T01:47:53;5.05;;;4.65;;
25653;SDS011;13511;48.622;9.230;2022-08-01T01:50:23;5.45;;;4.95;;
25653;SDS011;13511;48.622;9.230;2022-08-01T01:52:50;5.53;;;5.03;;
25653;SDS011;13511;48.622;9.230;2022-08-01T01:55:23;5.13;;;4.65;;
25653;SDS011;13511;48.622;9.230;2022-08-01T01:58:07;6.47;;;4.50;;
25653;SDS011;13511;48.622;9.230;2022-08-01T02:00:42;8.60;;;4.72;;
25653;SDS011;13511;48.622;9.230;2022-08-01T02:03:09;5.57;;;5.10;;
25653;SDS011;13511;48.622;9.230;2022-08-01T02:05:38;14.50;;;4.93;;
25653;SDS011;13511;48.622;9.230;2022-08-01T02:08:29;5.30;;;4.93;;
25653;SDS011;13511;48.622;9.230;2022-08-01T02:14:02;5.05;;;4.75;;
25653;SDS011;13511;48.622;9.230;2022-08-01T02:16:31;5.22;;;4.82;;
25653;SDS011;13511;48.622;9.230;2022-08-01T02:19:22;6.30;;;4.90;;
25653;SDS011;13511;48.622;9.230;2022-08-01T02:21:57;4.80;;;4.50;;
25653;SDS011;13511;48.622;9.230;2022-08-01T02:27:00;5.45;;;5.15;;
25653;SDS011;13511;48.622;9.230;2022-08-01T02:29:29;5.10;;;4.63;;
25653;SDS011;13511;48.622;9.230;2022-08-01T02:34:24;4.60;;;4.40;;
25653;SDS011;13511;48.622;9.230;2022-08-01T02:36:51;5.43;;;5.20;;
25653;SDS011;13511;48.622;9.230;2022-08-01T02:39:23;8.25;;;5.13;;
25653;SDS011;13511;48.622;9.230;2022-08-01T02:41:55;5.07;;;4.68;;
25653;SDS011;13511;48.622;9.230;2022-08-01T02:44:23;5.00;;;4.70;;
25653;SDS011;13511;48.622;9.230;2022-08-01T02:46:54;5.32;;;4.90;;
25653;SDS011;13511;48.622;9.230;2022-08-01T02:49:22;4.70;;;4.45;;
25653;SDS011;13511;48.622;9.230;2022-08-01T02:51:48;5.32;;;4.82;;
25653;SDS011;13511;48.622;9.230;2022-08-01T02:54:15;6.47;;;4.85;;
25653;SDS011;13511;48.622;9.230;2022-08-01T02:56:43;5.78;;;5.10;;
25653;SDS011;13511;48.622;9.230;2022-08-01T02:59:12;9.77;;;5.07;;
25653;SDS011;13511;48.622;9.230;2022-08-01T03:01:41;5.47;;;5.07;;
25653;SDS011;13511;48.622;9.230;2022-08-01T03:04:08;5.55;;;5.03;;
25653;SDS011;13511;48.622;9.230;2022-08-01T03:06:38;5.82;;;5.40;;
25653;SDS011;13511;48.622;9.230;2022-08-01T03:09:04;5.00;;;4.65;;
25653;SDS011;13511;48.622;9.230;2022-08-01T03:11:32;5.35;;;4.82;;
25653;SDS011;13511;48.622;9.230;2022-08-01T03:14:01;5.07;;;4.78;;
25653;SDS011;13511;48.622;9.230;2022-08-01T03:16:28;5.45;;;5.10;;
25653;SDS011;13511;48.622;9.230;2022-08-01T03:19:04;5.80;;;5.30;;
25653;SDS011;13511;48.622;9.230;2022-08-01T03:21:32;5.13;;;4.70;;
25653;SDS011;13511;48.622;9.230;2022-08-01T03:24:00;4.97;;;4.57;;
25653;SDS011;13511;48.622;9.230;2022-08-01T03:26:27;5.15;;;4.70;;
25653;SDS011;13511;48.622;9.230;2022-08-01T03:28:55;5.28;;;4.80;;
25653;SDS011;13511;48.622;9.230;2022-08-01T03:31:21;5.28;;;4.80;;
25653;SDS011;13511;48.622;9.230;2022-08-01T03:33:48;4.88;;;4.57;;
25653;SDS011;13511;48.622;9.230;2022-08-01T03:36:14;5.15;;;4.90;;
25653;SDS011;13511;48.622;9.230;2022-08-01T03:38:44;5.57;;;5.00;;
25653;SDS011;13511;48.622;9.230;2022-08-01T03:41:15;6.88;;;5.57;;
25653;SDS011;13511;48.622;9.230;2022-08-01T03:43:47;6.97;;;5.80;;
25653;SDS011;13511;48.622;9.230;2022-08-01T03:46:17;5.20;;;4.90;;
25653;SDS011;13511;48.622;9.230;2022-08-01T03:48:48;5.63;;;5.05;;
25653;SDS011;13511;48.622;9.230;2022-08-01T03:51:16;5.60;;;5.10;;
25653;SDS011;13511;48.622;9.230;2022-08-01T03:53:43;6.85;;;5.20;;
25653;SDS011;13511;48.622;9.230;2022-08-01T03:56:13;5.57;;;5.20;;
25653;SDS011;13511;48.622;9.230;2022-08-01T03:58:45;5.10;;;4.80;;
25653;SDS011;13511;48.622;9.230;2022-08-01T04:01:11;5.45;;;4.93;;
25653;SDS011;13511;48.622;9.230;2022-08-01T04:03:37;7.78;;;5.20;;
25653;SDS011;13511;48.622;9.230;2022-08-01T04:06:04;5.53;;;5.13;;
25653;SDS011;13511;48.622;9.230;2022-08-01T04:08:36;5.70;;;5.28;;
25653;SDS011;13511;48.622;9.230;2022-08-01T04:11:03;5.32;;;5.03;;
25653;SDS011;13511;48.622;9.230;2022-08-01T04:13:30;5.07;;;4.68;;
25653;SDS011;13511;48.622;9.230;2022-08-01T04:15:56;5.88;;;5.43;;
25653;SDS011;13511;48.622;9.230;2022-08-01T04:18:25;5.68;;;5.15;;
25653;SDS011;13511;48.622;9.230;2022-08-01T04:20:51;5.80;;;5.40;;
25653;SDS011;13511;48.622;9.230;2022-08-01T04:23:19;5.90;;;5.40;;
25653;SDS011;13511;48.622;9.230;2022-08-01T04:25:46;5.40;;;5.10;;
25653;SDS011;13511;48.622;9.230;2022-08-01T04:28:13;5.65;;;5.35;;
25653;SDS011;13511;48.622;9.230;2022-08-01T04:30:47;5.55;;;5.13;;
25653;SDS011;13511;48.622;9.230;2022-08-01T04:33:14;6.55;;;5.68;;
25653;SDS011;13511;48.622;9.230;2022-08-01T04:35:45;10.38;;;5.22;;
25653;SDS011;13511;48.622;9.230;2022-08-01T04:38:17;7.43;;;5.30;;
25653;SDS011;13511;48.622;9.230;2022-08-01T04:40:44;6.32;;;5.85;;
25653;SDS011;13511;48.622;9.230;2022-08-01T04:43:11;7.97;;;5.32;;
25653;SDS011;13511;48.622;9.230;2022-08-01T04:45:37;5.15;;;4.85;;
25653;SDS011;13511;48.622;9.230;2022-08-01T04:48:08;5.88;;;5.45;;
25653;SDS011;13511;48.622;9.230;2022-08-01T04:50:35;5.47;;;5.00;;
25653;SDS011;13511;48.622;9.230;2022-08-01T04:53:02;5.60;;;5.10;;
25653;SDS011;13511;48.622;9.230;2022-08-01T04:55:30;5.75;;;5.30;;
25653;SDS011;13511;48.622;9.230;2022-08-01T04:58:02;6.15;;;5.47;;
25653;SDS011;13511;48.622;9.230;2022-08-01T05:00:28;5.93;;;4.85;;
25653;SDS011;13511;48.622;9.230;2022-08-01T05:02:54;6.57;;;5.20;;
25653;SDS011;13511;48.622;9.230;2022-08-01T05:05:20;5.63;;;5.28;;
25653;SDS011;13511;48.622;9.230;2022-08-01T05:07:46;9.00;;;5.68;;
25653;SDS011;13511;48.622;9.230;2022-08-01T05:10:12;5.90;;;5.35;;
25653;SDS011;13511;48.622;9.230;2022-08-01T05:12:39;8.02;;;5.25;;
25653;SDS011;13511;48.622;9.230;2022-08-01T05:15:05;5.35;;;5.05;;
25653;SDS011;13511;48.622;9.230;2022-08-01T05:17:31;8.00;;;5.32;;
25653;SDS011;13511;48.622;9.230;2022-08-01T05:19:57;5.78;;;5.05;;
25653;SDS011;13511;48.622;9.230;2022-08-01T05:22:23;5.72;;;5.25;;
25653;SDS011;13511;48.622;9.230;2022-08-01T05:24:50;4.90;;;4.60;;
25653;SDS011;13511;48.622;9.230;2022-08-01T05:27:17;5.15;;;4.85;;
25653;SDS011;13511;48.622;9.230;2022-08-01T05:29:44;5.28;;;4.95;;
25653;SDS011;13511;48.622;9.230;2022-08-01T05:32:10;5.55;;;5.13;;
25653;SDS011;13511;48.622;9.230;2022-08-01T05:34:36;5.53;;;5.07;;
25653;SDS011;13511;48.622;9.230;2022-08-01T05:37:02;5.10;;;4.80;;
25653;SDS011;13511;48.622;9.230;2022-08-01T05:39:28;6.00;;;5.10;;
25653;SDS011;13511;48.622;9.230;2022-08-01T05:41:54;6.55;;;4.95;;
25653;SDS011;13511;48.622;9.230;2022-08-01T05:44:20;5.40;;;4.97;;
25653;SDS011;13511;48.622;9.230;2022-08-01T05:46:46;6.57;;;5.13;;
25653;SDS011;13511;48.622;9.230;2022-08-01T05:49:12;5.03;;;4.38;;
25653;SDS011;13511;48.622;9.230;2022-08-01T05:51:38;4.75;;;4.38;;
25653;SDS011;13511;48.622;9.230;2022-08-01T05:54:04;5.47;;;5.07;;
25653;SDS011;13511;48.622;9.230;2022-08-01T05:56:30;6.05;;;5.50;;
25653;SDS011;13511;48.622;9.230;2022-08-01T05:58:56;5.43;;;5.03;;
25653;SDS011;13511;48.622;9.230;2022-08-01T06:01:22;5.88;;;5.35;;
25653;SDS011;13511;48.622;9.230;2022-08-01T06:03:48;5.32;;;4.93;;
25653;SDS011;13511;48.622;9.230;2022-08-01T06:06:14;5.93;;;5.47;;
25653;SDS011;13511;48.622;9.230;2022-08-01T06:08:40;5.68;;;5.28;;
25653;SDS011;13511;48.622;9.230;2022-08-01T06:11:06;6.03;;;5.25;;
25653;SDS011;13511;48.622;9.230;2022-08-01T06:13:33;5.13;;;4.72;;
25653;SDS011;13511;48.622;9.230;2022-08-01T06:15:59;5.75;;;5.20;;
25653;SDS011;13511;48.622;9.230;2022-08-01T06:18:25;5.55;;;5.20;;
25653;SDS011;13511;48.622;9.230;2022-08-01T06:20:51;5.70;;;4.93;;
25653;SDS011;13511;48.622;9.230;2022-08-01T06:23:17;6.78;;;5.32;;
25653;SDS011;13511;48.622;9.230;2022-08-01T06:25:43;7.03;;;5.30;;
25653;SDS011;13511;48.622;9.230;2022-08-01T06:28:09;5.47;;;5.15;;
25653;SDS011;13511;48.622;9.230;2022-08-01T06:30:35;5.05;;;4.75;;
25653;SDS011;13511;48.622;9.230;2022-08-01T06:33:01;5.22;;;4.78;;
25653;SDS011;13511;48.622;9.230;2022-08-01T06:35:28;5.85;;;5.35;;
25653;SDS011;13511;48.622;9.230;2022-08-01T06:37:55;5.35;;;5.00;;
25653;SDS011;13511;48.622;9.230;2022-08-01T06:40:21;6.00;;;5.32;;
25653;SDS011;13511;48.622;9.230;2022-08-01T06:42:47;5.20;;;4.93;;
25653;SDS011;13511;48.622;9.230;2022-08-01T06:45:13;5.60;;;5.28;;
25653;SDS011;13511;48.622;9.230;2022-08-01T06:47:40;5.65;;;5.25;;
25653;SDS011;13511;48.622;9.230;2022-08-01T06:50:06;5.95;;;5.43;;
25653;SDS011;13511;48.622;9.230;2022-08-01T06:52:34;5.85;;;4.75;;
25653;SDS011;13511;48.622;9.230;2022-08-01T06:55:00;5.38;;;5.07;;
25653;SDS011;13511;48.622;9.230;2022-08-01T06:57:26;5.65;;;5.28;;
25653;SDS011;13511;48.622;9.230;2022-08-01T06:59:52;5.22;;;4.80;;
25653;SDS011;13511;48.622;9.230;2022-08-01T07:02:19;5.25;;;4.82;;
25653;SDS011;13511;48.622;9.230;2022-08-01T07:04:45;5.70;;;5.38;;
25653;SDS011;13511;48.622;9.230;2022-08-01T07:07:11;5.80;;;5.20;;
25653;SDS011;13511;48.622;9.230;2022-08-01T07:09:37;5.43;;;5.20;;
25653;SDS011;13511;48.622;9.230;2022-08-01T07:12:05;5.38;;;4.93;;
25653;SDS011;13511;48.622;9.230;2022-08-01T07:14:32;5.78;;;5.38;;
25653;SDS011;13511;48.622;9.230;2022-08-01T07:16:58;4.97;;;4.68;;
25653;SDS011;13511;48.622;9.230;2022-08-01T07:19:24;5.82;;;5.35;;
25653;SDS011;13511;48.622;9.230;2022-08-01T07:21:49;5.45;;;5.05;;
25653;SDS011;13511;48.622;9.230;2022-08-01T07:24:16;5.05;;;4.85;;
25653;SDS011;13511;48.622;9.230;2022-08-01T07:26:42;4.93;;;4.70;;
25653;SDS011;13511;48.622;9.230;2022-08-01T07:29:09;6.03;;;5.45;;
25653;SDS011;13511;48.622;9.230;2022-08-01T07:31:35;5.35;;;4.95;;
25653;SDS011;13511;48.622;9.230;2022-08-01T07:34:01;5.47;;;4.93;;
25653;SDS011;13511;48.622;9.230;2022-08-01T07:36:27;5.32;;;5.05;;
25653;SDS011;13511;48.622;9.230;2022-08-01T07:38:54;5.07;;;4.60;;
25653;SDS011;13511;48.622;9.230;2022-08-01T07:41:20;5.38;;;4.90;;
25653;SDS011;13511;48.622;9.230;2022-08-01T07:43:46;4.97;;;4.78;;
25653;SDS011;13511;48.622;9.230;2022-08-01T07:46:14;5.00;;;4.80;;
25653;SDS011;13511;48.622;9.230;2022-08-01T07:48:40;4.85;;;4.65;;
25653;SDS011;13511;48.622;9.230;2022-08-01T07:51:07;4.88;;;4.65;;
25653;SDS011;13511;48.622;9.230;2022-08-01T07:53:35;4.82;;;4.43;;
25653;SDS011;13511;48.622;9.230;2022-08-01T07:56:01;5.10;;;4.82;;
25653;SDS011;13511;48.622;9.230;2022-08-01T07:58:27;4.95;;;4.65;;
25653;SDS011;13511;48.622;9.230;2022-08-01T08:00:53;4.45;;;4.25;;
25653;SDS011;13511;48.622;9.230;2022-08-01T08:03:19;4.22;;;4.07;;
25653;SDS011;13511;48.622;9.230;2022-08-01T08:05:45;5.03;;;4.65;;
25653;SDS011;13511;48.622;9.230;2022-08-01T08:08:11;4.60;;;4.10;;
25653;SDS011;13511;48.622;9.230;2022-08-01T08:10:39;4.50;;;4.30;;
25653;SDS011;13511;48.622;9.230;2022-08-01T08:13:05;5.00;;;4.70;;
25653;SDS011;13511;48.622;9.230;2022-08-01T08:15:31;4.63;;;4.28;;
25653;SDS011;13511;48.622;9.230;2022-08-01T08:17:57;4.50;;;4.30;;
25653;SDS011;13511;48.622;9.230;2022-08-01T08:20:23;4.85;;;4.60;;
25653;SDS011;13511;48.622;9.230;2022-08-01T08:22:54;4.75;;;4.30;;
25653;SDS011;13511;48.622;9.230;2022-08-01T08:25:20;4.93;;;4.63;;
25653;SDS011;13511;48.622;9.230;2022-08-01T08:27:47;4.68;;;4.47;;
25653;SDS011;13511;48.622;9.230;2022-08-01T08:30:13;4.60;;;4.40;;
25653;SDS011;13511;48.622;9.230;2022-08-01T08:32:39;4.88;;;4.57;;
25653;SDS011;13511;48.622;9.230;2022-08-01T08:35:06;4.93;;;4.70;;
25653;SDS011;13511;48.622;9.230;2022-08-01T08:37:33;4.70;;;4.40;;
25653;SDS011;13511;48.622;9.230;2022-08-01T08:39:59;5.53;;;5.13;;
25653;SDS011;13511;48.622;9.230;2022-08-01T08:42:25;5.53;;;5.20;;
25653;SDS011;13511;48.622;9.230;2022-08-01T08:44:51;5.07;;;4.88;;
25653;SDS011;13511;48.622;9.230;2022-08-01T08:47:19;5.35;;;4.95;;
25653;SDS011;13511;48.622;9.230;2022-08-01T08:49:45;5.68;;;5.15;;
25653;SDS011;13511;48.622;9.230;2022-08-01T08:52:11;4.97;;;4.43;;
25653;SDS011;13511;48.622;9.230;2022-08-01T08:54:38;5.57;;;5.20;;
25653;SDS011;13511;48.622;9.230;2022-08-01T08:57:06;5.53;;;5.13;;
25653;SDS011;13511;48.622;9.230;2022-08-01T08:59:32;8.38;;;5.57;;
25653;SDS011;13511;48.622;9.230;2022-08-01T09:01:59;5.38;;;4.90;;
25653;SDS011;13511;48.622;9.230;2022-08-01T09:04:25;4.80;;;4.60;;
25653;SDS011;13511;48.622;9.230;2022-08-01T09:06:52;5.10;;;4.65;;
25653;SDS011;13511;48.622;9.230;2022-08-01T09:09:18;4.93;;;4.72;;
25653;SDS011;13511;48.622;9.230;2022-08-01T09:11:44;6.13;;;5.07;;
25653;SDS011;13511;48.622;9.230;2022-08-01T09:14:11;5.68;;;5.22;;
25653;SDS011;13511;48.622;9.230;2022-08-01T09:16:42;5.20;;;4.88;;
25653;SDS011;13511;48.622;9.230;2022-08-01T09:19:16;5.60;;;5.20;;
25653;SDS011;13511;48.622;9.230;2022-08-01T09:21:56;5.82;;;5.53;;
25653;SDS011;13511;48.622;9.230;2022-08-01T09:24:22;6.30;;;5.88;;
25653;SDS011;13511;48.622;9.230;2022-08-01T09:26:49;5.45;;;5.05;;
25653;SDS011;13511;48.622;9.230;2022-08-01T09:29:22;5.45;;;5.15;;
25653;SDS011;13511;48.622;9.230;2022-08-01T09:31:49;4.97;;;4.68;;
25653;SDS011;13511;48.622;9.230;2022-08-01T09:34:15;5.95;;;5.43;;
25653;SDS011;13511;48.622;9.230;2022-08-01T09:39:13;5.40;;;4.90;;
25653;SDS011;13511;48.622;9.230;2022-08-01T09:41:39;5.28;;;4.97;;
25653;SDS011;13511;48.622;9.230;2022-08-01T09:44:06;5.65;;;5.15;;
25653;SDS011;13511;48.622;9.230;2022-08-01T09:46:32;5.45;;;5.13;;
25653;SDS011;13511;48.622;9.230;2022-08-01T09:49:05;5.20;;;4.78;;
25653;SDS011;13511;48.622;9.230;2022-08-01T09:53:57;4.88;;;4.65;;
25653;SDS011;13511;48.622;9.230;2022-08-01T09:56:24;5.20;;;4.90;;
25653;SDS011;13511;48.622;9.230;2022-08-01T10:01:20;5.78;;;5.32;;
25653;SDS011;13511;48.622;9.230;2022-08-01T10:03:46;5.18;;;4.72;;
25653;SDS011;13511;48.622;9.230;2022-08-01T10:06:21;5.93;;;4.97;;
25653;SDS011;13511;48.622;9.230;2022-08-01T10:08:48;5.53;;;4.90;;
25653;SDS011;13511;48.622;9.230;2022-08-01T10:11:14;4.90;;;4.70;;
25653;SDS011;13511;48.622;9.230;2022-08-01T10:13:40;5.70;;;5.40;;
25653;SDS011;13511;48.622;9.230;2022-08-01T10:16:06;5.55;;;5.15;;
25653;SDS011;13511;48.622;9.230;2022-08-01T10:18:33;5.35;;;4.97;;
25653;SDS011;13511;48.622;9.230;2022-08-01T10:21:01;5.57;;;5.20;;
25653;SDS011;13511;48.622;9.230;2022-08-01T10:23:30;5.28;;;4.97;;
25653;SDS011;13511;48.622;9.230;2022-08-01T10:25:58;5.40;;;5.00;;
25653;SDS011;13511;48.622;9.230;2022-08-01T10:28:26;7.78;;;5.00;;
25653;SDS011;13511;48.622;9.230;2022-08-01T10:30:52;5.43;;;5.03;;
25653;SDS011;13511;48.622;9.230;2022-08-01T10:33:21;5.25;;;4.88;;
25653;SDS011;13511;48.622;9.230;2022-08-01T10:35:47;7.20;;;5.07;;
25653;SDS011;13511;48.622;9.230;2022-08-01T10:38:13;5.32;;;5.03;;
25653;SDS011;13511;48.622;9.230;2022-08-01T10:40:41;5.47;;;5.07;;
25653;SDS011;13511;48.622;9.230;2022-08-01T10:43:08;4.85;;;4.65;;
25653;SDS011;13511;48.622;9.230;2022-08-01T10:45:35;6.00;;;5.50;;
25653;SDS011;13511;48.622;9.230;2022-08-01T10:53:06;6.18;;;5.72;;
25653;SDS011;13511;48.622;9.230;2022-08-01T10:55:46;6.30;;;6.00;;
25653;SDS011;13511;48.622;9.230;2022-08-01T10:58:12;6.60;;;6.10;;
25653;SDS011;13511;48.622;9.230;2022-08-01T11:00:41;6.93;;;6.30;;
25653;SDS011;13511;48.622;9.230;2022-08-01T11:03:09;6.40;;;6.00;;
25653;SDS011;13511;48.622;9.230;2022-08-01T11:05:35;5.93;;;5.53;;
25653;SDS011;13511;48.622;9.230;2022-08-01T11:08:03;7.07;;;6.50;;
25653;SDS011;13511;48.622;9.230;2022-08-01T11:10:39;7.20;;;6.80;;
25653;SDS011;13511;48.622;9.230;2022-08-01T11:13:07;7.30;;;6.70;;
25653;SDS011;13511;48.622;9.230;2022-08-01T11:15:34;7.10;;;6.55;;
25653;SDS011;13511;48.622;9.230;2022-08-01T11:18:02;7.72;;;7.03;;
25653;SDS011;13511;48.622;9.230;2022-08-01T11:20:29;7.55;;;6.85;;
25653;SDS011;13511;48.622;9.230;2022-08-01T11:33:10;7.40;;;6.90;;
25653;SDS011;13511;48.622;9.230;2022-08-01T11:35:37;13.43;;;7.38;;
25653;SDS011;13511;48.622;9.230;2022-08-01T11:38:22;7.45;;;6.80;;
25653;SDS011;13511;48.622;9.230;2022-08-01T11:43:53;7.82;;;7.07;;
25653;SDS011;13511;48.622;9.230;2022-08-01T11:46:43;7.43;;;6.57;;
25653;SDS011;13511;48.622;9.230;2022-08-01T11:54:44;6.85;;;6.25;;
25653;SDS011;13511;48.622;9.230;2022-08-01T11:59:43;5.93;;;5.53;;
25653;SDS011;13511;48.622;9.230;2022-08-01T12:02:56;5.95;;;5.43;;
25653;SDS011;13511;48.622;9.230;2022-08-01T12:07:27;5.75;;;5.35;;
25653;SDS011;13511;48.622;9.230;2022-08-01T12:10:06;5.75;;;5.53;;
25653;SDS011;13511;48.622;9.230;2022-08-01T12:12:33;5.97;;;5.68;;
25653;SDS011;13511;48.622;9.230;2022-08-01T12:15:00;6.65;;;6.05;;
25653;SDS011;13511;48.622;9.230;2022-08-01T12:19:55;5.72;;;5.43;;
25653;SDS011;13511;48.622;9.230;2022-08-01T12:22:21;5.95;;;5.45;;
25653;SDS011;13511;48.622;9.230;2022-08-01T12:24:48;8.05;;;5.43;;
25653;SDS011;13511;48.622;9.230;2022-08-01T12:27:23;5.90;;;5.60;;
25653;SDS011;13511;48.622;9.230;2022-08-01T12:29:50;6.07;;;5.57;;
25653;SDS011;13511;48.622;9.230;2022-08-01T12:34:49;5.80;;;5.50;;
25653;SDS011;13511;48.622;9.230;2022-08-01T12:37:15;6.00;;;5.70;;
25653;SDS011;13511;48.622;9.230;2022-08-01T12:39:42;6.07;;;5.53;;
25653;SDS011;13511;48.622;9.230;2022-08-01T12:42:09;5.65;;;5.13;;
25653;SDS011;13511;48.622;9.230;2022-08-01T12:44:36;5.63;;;5.28;;
25653;SDS011;13511;48.622;9.230;2022-08-01T12:47:02;6.20;;;5.80;;
25653;SDS011;13511;48.622;9.230;2022-08-01T12:49:29;5.57;;;5.28;;
25653;SDS011;13511;48.622;9.230;2022-08-01T12:51:55;6.40;;;5.90;;
25653;SDS011;13511;48.622;9.230;2022-08-01T12:54:21;5.53;;;5.13;;
25653;SDS011;13511;48.622;9.230;2022-08-01T12:56:50;5.40;;;5.10;;
25653;SDS011;13511;48.622;9.230;2022-08-01T12:59:21;5.90;;;5.30;;
25653;SDS011;13511;48.622;9.230;2022-08-01T13:01:49;5.20;;;4.90;;
25653;SDS011;13511;48.622;9.230;2022-08-01T13:04:15;5.30;;;5.10;;
25653;SDS011;13511;48.622;9.230;2022-08-01T13:06:42;5.97;;;5.38;;
25653;SDS011;13511;48.622;9.230;2022-08-01T13:09:08;5.13;;;4.65;;
25653;SDS011;13511;48.622;9.230;2022-08-01T13:11:36;4.90;;;4.70;;
25653;SDS011;13511;48.622;9.230;2022-08-01T13:14:02;4.88;;;4.60;;
25653;SDS011;13511;48.622;9.230;2022-08-01T13:16:28;4.72;;;4.43;;
25653;SDS011;13511;48.622;9.230;2022-08-01T13:18:55;4.90;;;4.60;;
25653;SDS011;13511;48.622;9.230;2022-08-01T13:21:28;5.38;;;4.93;;
25653;SDS011;13511;48.622;9.230;2022-08-01T13:24:04;5.05;;;4.85;;
25653;SDS011;13511;48.622;9.230;2022-08-01T13:29:08;4.90;;;4.57;;
25653;SDS011;13511;48.622;9.230;2022-08-01T13:31:34;6.32;;;4.90;;
25653;SDS011;13511;48.622;9.230;2022-08-01T13:34:00;5.30;;;4.82;;
25653;SDS011;13511;48.622;9.230;2022-08-01T13:36:27;5.05;;;4.63;;
25653;SDS011;13511;48.622;9.230;2022-08-01T13:38:53;4.93;;;4.43;;
25653;SDS011;13511;48.622;9.230;2022-08-01T13:41:38;4.63;;;4.43;;
25653;SDS011;13511;48.622;9.230;2022-08-01T13:44:04;5.25;;;4.53;;
25653;SDS011;13511;48.622;9.230;2022-08-01T13:46:31;4.95;;;4.65;;
25653;SDS011;13511;48.622;9.230;2022-08-01T13:48:57;4.85;;;4.35;;
25653;SDS011;13511;48.622;9.230;2022-08-01T13:51:23;4.70;;;4.50;;
25653;SDS011;13511;48.622;9.230;2022-08-01T13:53:49;4.82;;;4.43;;
25653;SDS011;13511;48.622;9.230;2022-08-01T13:56:15;4.38;;;4.18;;
25653;SDS011;13511;48.622;9.230;2022-08-01T13:58:42;4.43;;;4.22;;
25653;SDS011;13511;48.622;9.230;2022-08-01T14:01:08;6.35;;;4.00;;
25653;SDS011;13511;48.622;9.230;2022-08-01T14:03:34;4.72;;;4.45;;
25653;SDS011;13511;48.622;9.230;2022-08-01T14:06:00;8.25;;;4.18;;
25653;SDS011;13511;48.622;9.230;2022-08-01T14:08:27;5.03;;;4.47;;
25653;SDS011;13511;48.622;9.230;2022-08-01T14:10:53;4.85;;;4.30;;
25653;SDS011;13511;48.622;9.230;2022-08-01T14:13:22;4.28;;;4.00;;
25653;SDS011;13511;48.622;9.230;2022-08-01T14:15:48;4.88;;;4.15;;
25653;SDS011;13511;48.622;9.230;2022-08-01T14:18:15;5.35;;;4.25;;
25653;SDS011;13511;48.622;9.230;2022-08-01T14:20:41;4.60;;;4.40;;
25653;SDS011;13511;48.622;9.230;2022-08-01T14:23:07;4.53;;;4.10;;
25653;SDS011;13511;48.622;9.230;2022-08-01T14:25:34;4.25;;;3.97;;
25653;SDS011;13511;48.622;9.230;2022-08-01T14:28:00;4.70;;;4.32;;
25653;SDS011;13511;48.622;9.230;2022-08-01T14:30:26;4.47;;;4.28;;
25653;SDS011;13511;48.622;9.230;2022-08-01T14:32:52;5.53;;;4.32;;
25653;SDS011;13511;48.622;9.230;2022-08-01T14:35:18;4.40;;;4.20;;
25653;SDS011;13511;48.622;9.230;2022-08-01T14:37:44;4.25;;;4.07;;
25653;SDS011;13511;48.622;9.230;2022-08-01T14:40:10;5.00;;;4.78;;
25653;SDS011;13511;48.622;9.230;2022-08-01T14:42:37;4.28;;;3.95;;
25653;SDS011;13511;48.622;9.230;2022-08-01T14:45:03;5.70;;;4.38;;
25653;SDS011;13511;48.622;9.230;2022-08-01T14:47:33;4.67;;;4.47;;
25653;SDS011;13511;48.622;9.230;2022-08-01T14:49:59;4.25;;;4.05;;
25653;SDS011;13511;48.622;9.230;2022-08-01T14:52:25;4.80;;;4.32;;
25653;SDS011;13511;48.622;9.230;2022-08-01T14:54:51;4.43;;;4.10;;
25653;SDS011;13511;48.622;9.230;2022-08-01T14:57:17;4.57;;;4.30;;
25653;SDS011;13511;48.622;9.230;2022-08-01T14:59:44;4.57;;;4.05;;
25653;SDS011;13511;48.622;9.230;2022-08-01T15:02:11;4.05;;;3.85;;
25653;SDS011;13511;48.622;9.230;2022-08-01T15:04:38;4.70;;;4.43;;
25653;SDS011;13511;48.622;9.230;2022-08-01T15:07:04;4.55;;;4.15;;
25653;SDS011;13511;48.622;9.230;2022-08-01T15:09:30;4.63;;;4.20;;
25653;SDS011;13511;48.622;9.230;2022-08-01T15:11:56;4.47;;;4.20;;
25653;SDS011;13511;48.622;9.230;2022-08-01T15:14:23;4.80;;;4.40;;
25653;SDS011;13511;48.622;9.230;2022-08-01T15:17:08;5.30;;;4.32;;
25653;SDS011;13511;48.622;9.230;2022-08-01T15:19:34;4.90;;;4.05;;
25653;SDS011;13511;48.622;9.230;2022-08-01T15:22:00;5.18;;;4.30;;
25653;SDS011;13511;48.622;9.230;2022-08-01T15:24:26;4.45;;;4.05;;
25653;SDS011;13511;48.622;9.230;2022-08-01T15:26:52;5.97;;;5.10;;
25653;SDS011;13511;48.622;9.230;2022-08-01T15:29:18;5.95;;;4.22;;
25653;SDS011;13511;48.622;9.230;2022-08-01T15:31:44;4.53;;;4.22;;
25653;SDS011;13511;48.622;9.230;2022-08-01T15:34:10;4.43;;;4.03;;
25653;SDS011;13511;48.622;9.230;2022-08-01T15:36:36;6.50;;;4.75;;
25653;SDS011;13511;48.622;9.230;2022-08-01T15:39:02;4.40;;;4.20;;
25653;SDS011;13511;48.622;9.230;2022-08-01T15:41:28;4.90;;;3.90;;
25653;SDS011;13511;48.622;9.230;2022-08-01T15:43:55;4.28;;;4.07;;
25653;SDS011;13511;48.622;9.230;2022-08-01T15:46:21;4.13;;;3.83;;
25653;SDS011;13511;48.622;9.230;2022-08-01T15:48:46;6.13;;;4.60;;
25653;SDS011;13511;48.622;9.230;2022-08-01T15:51:12;4.90;;;4.60;;
25653;SDS011;13511;48.622;9.230;2022-08-01T15:53:38;4.57;;;4.25;;
25653;SDS011;13511;48.622;9.230;2022-08-01T15:56:05;6.07;;;4.55;;